createdAt,value
2022-08-07T00:00:24.930Z,102015.13
2022-08-07T00:02:53.531Z,102033.03
2022-08-07T00:05:20.700Z,102019.34
2022-08-07T00:07:59.687Z,102017.84
2022-08-07T00:10:29.824Z,102019.53
2022-08-07T00:13:01.125Z,102009.97
2022-08-07T00:15:37.829Z,102006.81
2022-08-07T00:18:19.550Z,102005.66
2022-08-07T00:20:47.648Z,102010.31
2022-08-07T00:23:14.852Z,102010.28
2022-08-07T00:25:43.798Z,102007.28
2022-08-07T00:28:18.789Z,101999.81
2022-08-07T00:30:49.325Z,102007.16
2022-08-07T00:33:16.356Z,102009.47
2022-08-07T00:35:49.092Z,102008.97
2022-08-07T00:38:16.758Z,102004.66
2022-08-07T00:40:58.734Z,102014.50
2022-08-07T00:43:59.506Z,102006.16
2022-08-07T00:46:12.878Z,102005.47
2022-08-07T00:48:42.390Z,102000.97
2022-08-07T00:51:09.395Z,102002.97
2022-08-07T00:53:38.903Z,102004.84
2022-08-07T00:56:17.197Z,101993.63
2022-08-07T00:58:46.980Z,101994.38
2022-08-07T01:01:14.553Z,102000.38
2022-08-07T01:03:56.509Z,101995.94
2022-08-07T01:06:26.923Z,102000.69
2022-08-07T01:08:56.267Z,101993.28
2022-08-07T01:12:09.640Z,101992.25
2022-08-07T01:14:12.767Z,101993.34
2022-08-07T01:16:47.189Z,102003.88
2022-08-07T01:19:19.251Z,101996.69
2022-08-07T01:21:46.613Z,101995.06
2022-08-07T01:24:13.577Z,101986.16
2022-08-07T01:26:40.445Z,101993.47
2022-08-07T01:29:07.446Z,101990.88
2022-08-07T01:31:42.355Z,101993.63
2022-08-07T01:34:10.331Z,101990.19
2022-08-07T01:36:40.582Z,101988.50
2022-08-07T01:39:10.006Z,101995.25
2022-08-07T01:41:38.069Z,101991.34
2022-08-07T01:44:05.587Z,101982.28
2022-08-07T01:46:32.815Z,101987.56
2022-08-07T01:49:00.175Z,101989.47
2022-08-07T01:52:04.241Z,101977.75
2022-08-07T01:54:32.636Z,101980.78
2022-08-07T01:57:01.295Z,101979.09
2022-08-07T01:59:31.046Z,101983.09
2022-08-07T02:02:02.715Z,101980.16
2022-08-07T02:04:31.532Z,101988.56
2022-08-07T02:06:58.555Z,101979.50
2022-08-07T02:09:51.994Z,101981.47
2022-08-07T02:12:18.458Z,101977.94
2022-08-07T02:14:45.301Z,101986.00
2022-08-07T02:17:26.301Z,101985.75
2022-08-07T02:20:05.156Z,101979.13
2022-08-07T02:22:34.673Z,101979.38
2022-08-07T02:25:01.744Z,101981.75
2022-08-07T02:27:35.004Z,101981.72
2022-08-07T02:30:03.966Z,101986.88
2022-08-07T02:32:36.131Z,101986.84
2022-08-07T02:35:09.181Z,101991.72
2022-08-07T02:37:36.445Z,101979.38
2022-08-07T02:40:29.863Z,101985.78
2022-08-07T02:42:57.958Z,101974.66
2022-08-07T02:46:00.789Z,101980.19
2022-08-07T02:48:15.514Z,101965.94
2022-08-07T02:50:42.804Z,101973.09
2022-08-07T02:53:11.796Z,101969.81
2022-08-07T02:56:03.681Z,101977.31
2022-08-07T02:58:27.350Z,101973.09
2022-08-07T03:00:54.314Z,101976.72
2022-08-07T03:03:22.822Z,101978.31
2022-08-07T03:05:50.422Z,101982.06
2022-08-07T03:08:26.927Z,101979.94
2022-08-07T03:10:56.292Z,101974.38
2022-08-07T03:13:23.137Z,101971.50
2022-08-07T03:15:56.261Z,101979.03
2022-08-07T03:18:34.844Z,101962.91
2022-08-07T03:21:03.097Z,101972.84
2022-08-07T03:23:34.043Z,101976.66
2022-08-07T03:26:21.215Z,101976.59
2022-08-07T03:28:51.461Z,101972.78
2022-08-07T03:31:18.686Z,101974.03
2022-08-07T03:33:45.701Z,101978.44
2022-08-07T03:36:15.447Z,101981.34
2022-08-07T03:38:43.517Z,101977.09
2022-08-07T03:41:12.140Z,101975.38
2022-08-07T03:43:39.076Z,101977.47
2022-08-07T03:46:18.174Z,101975.00
2022-08-07T03:49:03.131Z,101990.97
2022-08-07T03:51:30.851Z,101982.06
2022-08-07T03:54:33.199Z,101992.84
2022-08-07T03:57:03.543Z,101994.16
2022-08-07T03:59:32.213Z,101997.00
2022-08-07T04:01:59.302Z,101986.97
2022-08-07T04:04:26.282Z,101981.34
2022-08-07T04:06:53.207Z,101988.75
2022-08-07T04:09:23.297Z,101999.00
2022-08-07T04:12:26.571Z,101983.00
2022-08-07T04:14:43.846Z,101986.00
2022-08-07T04:17:19.928Z,101991.19
2022-08-07T04:19:52.744Z,101997.44
2022-08-07T04:22:22.998Z,101994.16
2022-08-07T04:24:50.462Z,101995.53
2022-08-07T04:27:35.902Z,101985.19
2022-08-07T04:30:11.631Z,101986.97
2022-08-07T04:32:44.951Z,101990.59
2022-08-07T04:35:14.653Z,101990.75
2022-08-07T04:38:03.181Z,102001.94
2022-08-07T04:40:29.590Z,102001.84
2022-08-07T04:43:01.306Z,101997.16
2022-08-07T04:45:57.384Z,101999.22
2022-08-07T04:48:16.557Z,102001.16
2022-08-07T04:50:43.786Z,102002.34
2022-08-07T04:53:39.945Z,101999.44
2022-08-07T04:58:10.523Z,102010.97
2022-08-07T05:00:07.908Z,102005.22
2022-08-07T05:01:40.678Z,102010.22
2022-08-07T05:04:17.174Z,102009.78
2022-08-07T05:06:51.553Z,102017.28
2022-08-07T05:09:43.238Z,102007.28
2022-08-07T05:12:07.149Z,102007.88
2022-08-07T05:14:52.111Z,102014.63
2022-08-07T05:17:52.232Z,102011.06
2022-08-07T05:20:09.967Z,102005.03
2022-08-07T05:22:36.948Z,102014.00
2022-08-07T05:25:08.789Z,102013.75
2022-08-07T05:28:03.576Z,102010.03
2022-08-07T05:30:32.695Z,102010.75
2022-08-07T05:33:03.332Z,102011.44
2022-08-07T05:35:33.491Z,102011.75
2022-08-07T05:38:09.824Z,102014.06
2022-08-07T05:40:37.083Z,102006.53
2022-08-07T05:43:17.806Z,102017.38
2022-08-07T05:45:47.017Z,102020.34
2022-08-07T05:48:14.780Z,102023.31
2022-08-07T05:50:43.149Z,102017.81
2022-08-07T05:54:09.648Z,102018.16
2022-08-07T05:56:03.774Z,102013.91
2022-08-07T05:58:36.415Z,102017.28
2022-08-07T06:01:05.143Z,102018.97
2022-08-07T06:03:56.585Z,102021.56
2022-08-07T06:06:22.211Z,102019.44
2022-08-07T06:08:56.577Z,102020.47
2022-08-07T06:11:25.336Z,102029.16
2022-08-07T06:14:12.751Z,102023.13
2022-08-07T06:16:39.620Z,102014.06
2022-08-07T06:19:06.702Z,102015.22
2022-08-07T06:22:16.732Z,102017.69
2022-08-07T06:24:45.839Z,102031.06
2022-08-07T06:27:07.857Z,102017.53
2022-08-07T06:29:34.849Z,102008.69
2022-08-07T06:32:05.716Z,102016.50
2022-08-07T06:34:32.639Z,102012.94
2022-08-07T06:37:02.670Z,102014.03
2022-08-07T06:40:16.174Z,102014.00
2022-08-07T06:42:17.430Z,102018.69
2022-08-07T06:44:44.536Z,102019.91
2022-08-07T06:47:17.645Z,102016.69
2022-08-07T06:49:51.533Z,102009.66
2022-08-07T06:52:31.442Z,102019.34
2022-08-07T06:55:31.624Z,102017.72
2022-08-07T06:57:50.974Z,102009.81
2022-08-07T07:00:21.702Z,102021.50
2022-08-07T07:02:53.985Z,102022.03
2022-08-07T07:06:03.615Z,102009.13
2022-08-07T07:08:18.796Z,102008.63
2022-08-07T07:10:57.047Z,102016.47
2022-08-07T07:13:55.935Z,102007.38
2022-08-07T07:16:11.590Z,102007.63
2022-08-07T07:18:47.990Z,102016.38
2022-08-07T07:21:19.562Z,102017.44
2022-08-07T07:24:08.348Z,102009.59
2022-08-07T07:26:36.941Z,102006.78
2022-08-07T07:29:55.842Z,102016.47
2022-08-07T07:31:51.685Z,102006.75
2022-08-07T07:34:18.495Z,102002.88
2022-08-07T07:36:47.955Z,102004.63
2022-08-07T07:39:19.631Z,102004.06
2022-08-07T07:42:02.278Z,102000.94
2022-08-07T07:44:35.748Z,101997.13
2022-08-07T07:47:14.050Z,102000.28
2022-08-07T07:50:32.807Z,101995.69
2022-08-07T07:52:31.415Z,101991.53
2022-08-07T07:54:58.485Z,101990.59
2022-08-07T07:57:44.053Z,101980.00
2022-08-07T08:00:12.459Z,101986.91
2022-08-07T08:03:05.780Z,101980.00
2022-08-07T08:05:50.898Z,101980.34
2022-08-07T08:08:35.160Z,101982.50
2022-08-07T08:11:03.734Z,101975.41
2022-08-07T08:13:36.678Z,101975.84
2022-08-07T08:16:18.100Z,101981.56
2022-08-07T08:18:45.094Z,101975.13
2022-08-07T08:21:55.859Z,101970.75
2022-08-07T08:24:44.809Z,101975.34
2022-08-07T08:27:14.283Z,101979.44
2022-08-07T08:29:54.278Z,101974.19
2022-08-07T08:32:25.308Z,101980.84
2022-08-07T08:34:52.314Z,101979.59
2022-08-07T08:37:59.567Z,101968.78
2022-08-07T08:40:06.015Z,101976.16
2022-08-07T08:42:40.434Z,101974.00
2022-08-07T08:45:13.495Z,101967.63
2022-08-07T08:47:51.900Z,101964.94
2022-08-07T08:50:28.385Z,101964.59
2022-08-07T08:53:06.337Z,101962.13
2022-08-07T08:55:54.236Z,101965.78
2022-08-07T08:58:26.517Z,101959.22
2022-08-07T09:00:57.152Z,101960.94
2022-08-07T09:03:24.034Z,101961.38
2022-08-07T09:06:11.445Z,101962.41
2022-08-07T09:08:39.311Z,101950.50
2022-08-07T09:11:06.740Z,101951.81
2022-08-07T09:13:37.492Z,101951.03
2022-08-07T09:16:21.957Z,101948.63
2022-08-07T09:18:53.234Z,101952.34
2022-08-07T09:21:58.539Z,101953.00
2022-08-07T09:24:31.144Z,101953.22
2022-08-07T09:26:58.900Z,101949.97
2022-08-07T09:30:05.476Z,101947.63
2022-08-07T09:32:21.536Z,101942.44
2022-08-07T09:34:54.051Z,101938.41
2022-08-07T09:37:21.152Z,101934.56
2022-08-07T09:40:07.947Z,101932.91
2022-08-07T09:42:35.677Z,101933.59
2022-08-07T09:47:24.874Z,101928.13
2022-08-07T09:48:01.770Z,101918.22
2022-08-07T09:50:31.190Z,101918.38
2022-08-07T09:52:58.979Z,101913.66
2022-08-07T09:55:29.654Z,101925.59
2022-08-07T09:58:14.704Z,101917.22
2022-08-07T10:00:41.502Z,101922.28
2022-08-07T10:04:03.294Z,101911.44
2022-08-07T10:06:00.015Z,101908.63
2022-08-07T10:08:28.141Z,101906.34
2022-08-07T10:11:59.437Z,101901.38
2022-08-07T10:14:01.315Z,101904.19
2022-08-07T10:16:28.915Z,101895.91
2022-08-07T10:18:55.723Z,101892.63
2022-08-07T10:22:12.216Z,101899.25
2022-08-07T10:24:10.069Z,101896.94
2022-08-07T10:26:37.045Z,101886.41
2022-08-07T10:29:04.498Z,101882.84
2022-08-07T10:31:38.469Z,101890.72
2022-08-07T10:34:18.122Z,101888.38
2022-08-07T10:36:45.519Z,101876.59
2022-08-07T10:39:14.353Z,101873.47
2022-08-07T10:41:46.819Z,101864.97
2022-08-07T10:44:19.387Z,101866.09
2022-08-07T10:46:55.485Z,101861.94
2022-08-07T10:49:45.333Z,101857.28
2022-08-07T10:52:13.868Z,101852.53
2022-08-07T10:54:40.898Z,101841.28
2022-08-07T10:57:07.788Z,101846.34
2022-08-07T10:59:37.365Z,101837.59
2022-08-07T11:02:11.888Z,101841.91
2022-08-07T11:04:39.447Z,101831.75
2022-08-07T11:07:14.714Z,101831.38
2022-08-07T11:10:07.746Z,101832.34
2022-08-07T11:12:32.257Z,101830.88
2022-08-07T11:15:00.570Z,101832.66
2022-08-07T11:17:43.246Z,101832.13
2022-08-07T11:20:12.717Z,101821.28
2022-08-07T11:22:45.953Z,101817.50
2022-08-07T11:25:13.285Z,101822.13
2022-08-07T11:28:01.369Z,101820.25
2022-08-07T11:30:42.055Z,101816.88
2022-08-07T11:33:14.970Z,101806.78
2022-08-07T11:35:59.638Z,101809.19
2022-08-07T11:38:28.484Z,101814.38
2022-08-07T11:40:56.229Z,101803.97
2022-08-07T11:43:41.410Z,101805.03
2022-08-07T11:46:10.801Z,101802.53
2022-08-07T11:48:37.704Z,101803.03
2022-08-07T11:51:04.545Z,101792.34
2022-08-07T11:53:36.062Z,101796.22
2022-08-07T11:56:15.590Z,101789.13
2022-08-07T11:58:50.084Z,101790.19
2022-08-07T12:01:20.329Z,101786.13
2022-08-07T12:03:48.990Z,101789.25
2022-08-07T12:06:39.959Z,101779.81
2022-08-07T12:09:02.667Z,101780.22
2022-08-07T12:11:32.576Z,101779.75
2022-08-07T12:13:59.544Z,101775.81
2022-08-07T12:16:30.077Z,101778.63
2022-08-07T12:18:58.985Z,101771.50
2022-08-07T12:22:36.586Z,101777.09
2022-08-07T12:24:37.934Z,101772.81
2022-08-07T12:27:03.159Z,101774.34
2022-08-07T12:29:37.549Z,101763.13
2022-08-07T12:32:12.124Z,101770.31
2022-08-07T12:34:39.579Z,101768.59
2022-08-07T12:37:16.511Z,101759.09
2022-08-07T12:39:51.254Z,101763.59
2022-08-07T12:42:18.543Z,101747.75
2022-08-07T12:44:54.249Z,101753.78
2022-08-07T12:47:27.104Z,101744.03
2022-08-07T12:50:04.901Z,101744.69
2022-08-07T12:52:46.303Z,101740.63
2022-08-07T12:55:16.478Z,101737.44
2022-08-07T12:58:00.878Z,101741.44
2022-08-07T13:00:32.707Z,101732.38
2022-08-07T13:03:06.970Z,101730.03
2022-08-07T13:06:04.603Z,101734.59
2022-08-07T13:08:21.322Z,101728.50
2022-08-07T13:10:51.531Z,101727.13
2022-08-07T13:13:48.458Z,101732.88
2022-08-07T13:16:05.960Z,101727.72
2022-08-07T13:18:34.527Z,101720.75
2022-08-07T13:21:02.774Z,101717.56
2022-08-07T13:24:00.711Z,101718.69
2022-08-07T13:26:18.385Z,101719.06
2022-08-07T13:28:46.988Z,101714.38
2022-08-07T13:31:14.074Z,101712.09
2022-08-07T13:34:31.224Z,101704.53
2022-08-07T13:36:27.737Z,101705.19
2022-08-07T13:38:55.634Z,101701.31
2022-08-07T13:41:24.372Z,101699.75
2022-08-07T13:43:56.512Z,101693.88
2022-08-07T13:46:28.295Z,101700.28
2022-08-07T13:48:59.775Z,101690.09
2022-08-07T13:51:28.286Z,101695.97
2022-08-07T13:54:16.492Z,101696.41
2022-08-07T13:56:51.660Z,101687.41
2022-08-07T13:59:19.079Z,101685.97
2022-08-07T14:02:03.829Z,101686.09
2022-08-07T14:04:35.754Z,101687.16
2022-08-07T14:07:03.640Z,101679.66
2022-08-07T14:10:00.876Z,101680.47
2022-08-07T14:12:20.789Z,101676.19
2022-08-07T14:14:54.304Z,101664.59
2022-08-07T14:18:13.127Z,101669.22
2022-08-07T14:20:40.898Z,101668.19
2022-08-07T14:22:54.693Z,101666.53
2022-08-07T14:25:22.844Z,101659.91
2022-08-07T14:28:11.911Z,101657.38
2022-08-07T14:30:36.641Z,101659.91
2022-08-07T14:33:07.614Z,101665.16
2022-08-07T14:35:45.738Z,101663.19
2022-08-07T14:38:26.536Z,101656.03
2022-08-07T14:40:58.085Z,101651.97
2022-08-07T14:43:58.983Z,101652.47
2022-08-07T14:46:11.919Z,101649.25
2022-08-07T14:48:44.333Z,101639.28
2022-08-07T14:51:15.804Z,101636.41
2022-08-07T14:54:30.394Z,101635.25
2022-08-07T14:56:49.110Z,101633.63
2022-08-07T15:00:04.474Z,101632.81
2022-08-07T15:02:02.769Z,101627.34
2022-08-07T15:04:30.225Z,101623.22
2022-08-07T15:07:00.945Z,101628.09
2022-08-07T15:13:11.331Z,101621.19
2022-08-07T15:17:54.681Z,101634.00
2022-08-07T15:20:33.185Z,101631.53
2022-08-07T15:23:20.543Z,101622.91
2022-08-07T15:25:47.624Z,101620.13
2022-08-07T15:28:31.428Z,101631.56
2022-08-07T15:31:05.603Z,101619.97
2022-08-07T15:37:02.420Z,101626.19
2022-08-07T15:39:10.534Z,101624.53
2022-08-07T15:42:46.368Z,101621.34
2022-08-07T15:44:24.455Z,101620.13
2022-08-07T15:46:52.954Z,101615.38
2022-08-07T15:49:25.362Z,101601.53
2022-08-07T15:54:24.480Z,101607.25
2022-08-07T15:56:53.212Z,101602.09
2022-08-07T15:59:20.238Z,101605.88
2022-08-07T16:02:07.054Z,101595.94
2022-08-07T16:04:35.382Z,101600.78
2022-08-07T16:07:04.675Z,101606.03
2022-08-07T16:09:41.155Z,101600.88
2022-08-07T16:12:12.252Z,101599.59
2022-08-07T16:14:39.243Z,101595.94
2022-08-07T16:17:14.852Z,101599.34
2022-08-07T16:19:59.329Z,101591.78
2022-08-07T16:22:34.080Z,101594.94
2022-08-07T16:25:03.012Z,101595.03
2022-08-07T16:27:40.670Z,101603.22
2022-08-07T16:30:30.533Z,101594.38
2022-08-07T16:32:55.326Z,101591.00
2022-08-07T16:35:52.351Z,101589.06
2022-08-07T16:38:11.439Z,101590.84
2022-08-07T16:40:57.047Z,101588.09
2022-08-07T16:44:02.709Z,101579.81
2022-08-07T16:47:06.008Z,101590.31
2022-08-07T16:50:28.273Z,101587.91
2022-08-07T16:51:57.642Z,101589.03
2022-08-07T16:54:34.633Z,101577.13
2022-08-07T16:57:03.215Z,101594.66
2022-08-07T16:59:46.881Z,101596.41
2022-08-07T17:02:14.183Z,101596.41
2022-08-07T17:05:00.968Z,101587.84
2022-08-07T17:07:55.383Z,101593.47
2022-08-07T17:10:32.529Z,101584.34
2022-08-07T17:13:00.844Z,101584.91
2022-08-07T17:15:44.275Z,101588.69
2022-08-07T17:18:15.737Z,101586.06
2022-08-07T17:20:46.646Z,101584.13
2022-08-07T17:23:13.623Z,101586.03
2022-08-07T17:25:47.776Z,101587.31
2022-08-07T17:28:19.852Z,101586.78
2022-08-07T17:30:57.724Z,101575.44
2022-08-07T17:34:08.890Z,101582.06
2022-08-07T17:36:20.106Z,101583.59
2022-08-07T17:38:50.254Z,101591.09
2022-08-07T17:42:03.778Z,101587.31
2022-08-07T17:44:08.291Z,101585.78
2022-08-07T17:46:40.918Z,101579.53
2022-08-07T17:49:08.849Z,101578.78
2022-08-07T17:51:49.698Z,101581.88
2022-08-07T17:54:39.669Z,101588.00
2022-08-07T17:57:19.036Z,101586.69
2022-08-07T17:59:46.329Z,101586.75
2022-08-07T18:02:17.517Z,101586.63
2022-08-07T18:04:50.313Z,101583.84
2022-08-07T18:07:20.607Z,101591.22
2022-08-07T18:10:06.453Z,101583.31
2022-08-07T18:12:37.176Z,101581.00
2022-08-07T18:15:08.339Z,101589.63
2022-08-07T18:18:46.956Z,101587.72
2022-08-07T18:21:08.230Z,101590.47
2022-08-07T18:23:42.618Z,101588.22
2022-08-07T18:26:00.997Z,101597.50
2022-08-07T18:28:35.510Z,101597.47
2022-08-07T18:31:03.038Z,101597.97
2022-08-07T18:33:29.897Z,101597.06
2022-08-07T18:35:57.280Z,101603.22
2022-08-07T18:38:56.828Z,101594.97
2022-08-07T18:41:17.156Z,101606.19
2022-08-07T18:43:49.291Z,101611.81
2022-08-07T18:46:21.920Z,101613.81
2022-08-07T18:50:31.149Z,101609.38
2022-08-07T18:52:25.490Z,101614.09
2022-08-07T18:54:27.892Z,101609.25
2022-08-07T18:57:29.369Z,101614.38
2022-08-07T18:59:47.960Z,101613.25
2022-08-07T19:02:36.250Z,101614.22
2022-08-07T19:05:10.766Z,101623.13
2022-08-07T19:07:51.777Z,101628.44
2022-08-07T19:10:31.620Z,101620.25
2022-08-07T19:12:59.418Z,101622.97
2022-08-07T19:16:05.657Z,101629.84
2022-08-07T19:18:34.421Z,101628.06
2022-08-07T19:21:10.077Z,101626.00
2022-08-07T19:23:59.232Z,101626.72
2022-08-07T19:26:28.511Z,101644.91
2022-08-07T19:31:04.083Z,101647.09
2022-08-07T19:32:11.493Z,101652.06
2022-08-07T19:34:34.293Z,101654.03
2022-08-07T19:37:10.348Z,101659.91
2022-08-07T19:39:56.310Z,101661.25
2022-08-07T19:42:24.852Z,101648.94
2022-08-07T19:44:52.013Z,101648.03
2022-08-07T19:47:27.067Z,101653.09
2022-08-07T19:49:56.448Z,101657.19
2022-08-07T19:52:25.812Z,101656.13
2022-08-07T19:54:58.193Z,101658.06
2022-08-07T19:58:03.482Z,101663.72
2022-08-07T20:00:28.385Z,101668.91
2022-08-07T20:02:56.454Z,101667.63
2022-08-07T20:05:25.214Z,101675.72
2022-08-07T20:07:55.084Z,101674.19
2022-08-07T20:10:36.282Z,101677.44
2022-08-07T20:13:15.822Z,101674.38
2022-08-07T20:15:50.905Z,101672.13
2022-08-07T20:18:18.415Z,101674.19
2022-08-07T20:20:46.954Z,101672.09
2022-08-07T20:23:40.281Z,101665.69
2022-08-07T20:26:02.014Z,101667.28
2022-08-07T20:28:30.688Z,101671.84
2022-08-07T20:30:58.140Z,101667.44
2022-08-07T20:33:37.566Z,101671.16
2022-08-07T20:36:05.290Z,101666.00
2022-08-07T20:38:32.731Z,101669.47
2022-08-07T20:41:03.922Z,101668.56
2022-08-07T20:43:32.493Z,101671.09
2022-08-07T20:46:25.921Z,101670.78
2022-08-07T20:49:53.868Z,101670.28
2022-08-07T20:51:36.118Z,101673.88
2022-08-07T20:54:11.751Z,101680.16
2022-08-07T20:56:46.174Z,101679.88
2022-08-07T21:00:04.990Z,101675.56
2022-08-07T21:02:04.337Z,101672.41
2022-08-07T21:04:41.561Z,101673.78
2022-08-07T21:07:14.729Z,101667.09
2022-08-07T21:09:59.183Z,101676.34
2022-08-07T21:12:30.728Z,101674.09
2022-08-07T21:14:58.159Z,101678.06
2022-08-07T21:18:06.615Z,101672.66
2022-08-07T21:20:18.670Z,101675.84
2022-08-07T21:22:53.789Z,101685.97
2022-08-07T21:25:21.622Z,101683.47
2022-08-07T21:27:49.301Z,101682.84
2022-08-07T21:30:21.344Z,101679.41
2022-08-07T21:32:52.241Z,101682.69
2022-08-07T21:35:34.586Z,101686.00
2022-08-07T21:38:06.180Z,101675.97
2022-08-07T21:40:36.001Z,101678.97
2022-08-07T21:43:05.194Z,101685.50
2022-08-07T21:46:09.502Z,101686.81
2022-08-07T21:48:32.487Z,101679.63
2022-08-07T21:51:01.355Z,101684.31
2022-08-07T21:53:28.612Z,101680.94
2022-08-07T21:55:55.894Z,101678.34
2022-08-07T21:58:32.127Z,101680.78
2022-08-07T22:00:59.485Z,101680.34
2022-08-07T22:03:31.377Z,101680.84
2022-08-07T22:05:58.861Z,101681.06
2022-08-07T22:08:25.675Z,101683.78
2022-08-07T22:10:53.489Z,101691.59
2022-08-07T22:13:23.863Z,101681.78
2022-08-07T22:16:40.275Z,101687.50
2022-08-07T22:18:39.332Z,101690.84
2022-08-07T22:21:08.897Z,101689.00
2022-08-07T22:23:40.181Z,101683.28
2022-08-07T22:26:07.961Z,101691.03
2022-08-07T22:28:35.754Z,101685.06
2022-08-07T22:31:05.256Z,101688.09
2022-08-07T22:33:53.375Z,101686.47
2022-08-07T22:36:19.221Z,101696.56
2022-08-07T22:38:47.926Z,101694.22
2022-08-07T22:41:16.269Z,101690.56
2022-08-07T22:43:47.470Z,101695.44
2022-08-07T22:46:46.952Z,101690.78
2022-08-07T22:49:09.122Z,101704.19
2022-08-07T22:51:39.594Z,101693.72
2022-08-07T22:54:09.465Z,101701.16
2022-08-07T22:56:36.346Z,101696.84
2022-08-07T22:59:05.189Z,101701.78
2022-08-07T23:01:49.348Z,101706.16
2022-08-07T23:04:17.096Z,101698.66
2022-08-07T23:06:44.022Z,101700.41
2022-08-07T23:10:03.999Z,101700.31
2022-08-07T23:12:06.339Z,101699.13
2022-08-07T23:14:33.976Z,101700.19
2022-08-07T23:17:00.772Z,101694.56
2022-08-07T23:19:57.879Z,101701.94
2022-08-07T23:22:27.124Z,101697.44
2022-08-07T23:24:54.170Z,101696.84
2022-08-07T23:27:33.588Z,101695.44
2022-08-07T23:30:39.591Z,101694.94
2022-08-07T23:34:23.082Z,101701.28
2022-08-07T23:35:37.582Z,101703.78
2022-08-07T23:38:04.473Z,101693.25
2022-08-07T23:40:31.255Z,101699.22
2022-08-07T23:42:58.100Z,101702.22
2022-08-07T23:45:33.173Z,101698.50
2022-08-07T23:48:11.712Z,101706.59
2022-08-07T23:50:42.622Z,101703.06
2022-08-07T23:53:15.448Z,101712.84
2022-08-07T23:55:47.213Z,101698.19
2022-08-07T23:58:21.528Z,101702.09
